Terminal Aerodrome Forecast
Issued by NWS

Home | Current Version | Previous Version | Text Only | Print | Product List | Glossary On
Versions: 1 2 3 4 5 6 7 8 9 10 11 12 13 14 15 16 17 18 19 20 21 22 23 24 25 26 27 28 29 30
000
FTUS46 KOTX 221132
TAFPUW
TAF
KPUW 221132Z 2212/2312 25011KT P6SM OVC090
     FM221500 26012KT P6SM SCT120
     FM221900 23008KT P6SM BKN200
     FM230600 14004KT P6SM BKN250=

USA.gov is the U.S. government's official web portal to all federal, state and local government web resources and services.